Time;durP1;ratioP1;P1;durP2;ratioP2;P2;SDS_P1;SDS_P2;PMS_P1;PMS_P2;Temp;Humidity;BMP_temperature;BMP_pressure;BME280_temperature;BME280_humidity;BME280_pressure;Samples;Min_cycle;Max_cycle;Signal;HPM_P1;HPM_P2
2021/08/31 00:01:55;;;;;;;15.40;10.85;;;14.20;99.90;;;;;;5051610;28;20394;-76
2021/08/31 00:04:21;;;;;;;15.93;10.95;;;14.20;99.90;;;;;;5051121;28;20106;-76
2021/08/31 00:06:47;;;;;;;13.40;10.55;;;14.30;99.90;;;;;;5050999;28;20056;-76
2021/08/31 00:09:14;;;;;;;13.02;11.13;;;14.30;99.90;;;;;;5050111;28;20039;-76
2021/08/31 00:11:40;;;;;;;11.00;9.82;;;14.30;99.90;;;;;;5051221;28;20461;-76
2021/08/31 00:14:05;;;;;;;11.73;9.98;;;14.30;99.90;;;;;;5049621;28;20032;-76
2021/08/31 00:16:31;;;;;;;14.15;10.40;;;14.30;99.90;;;;;;5050813;28;20032;-76
2021/08/31 00:18:57;;;;;;;13.50;10.10;;;14.30;99.90;;;;;;5050399;28;20037;-76
2021/08/31 00:21:22;;;;;;;13.00;10.63;;;14.30;99.90;;;;;;5051911;28;20028;-76
2021/08/31 00:23:48;;;;;;;11.40;10.20;;;14.30;99.90;;;;;;5054829;28;20224;-76
2021/08/31 00:26:13;;;;;;;11.80;9.93;;;14.30;99.90;;;;;;5053032;28;20573;-76
2021/08/31 00:28:39;;;;;;;10.70;9.60;;;14.30;99.90;;;;;;5054360;28;20021;-76
2021/08/31 00:31:04;;;;;;;14.50;11.55;;;14.20;99.90;;;;;;5054150;28;20068;-76
2021/08/31 00:33:30;;;;;;;11.02;9.65;;;14.20;99.90;;;;;;5054774;28;20036;-76
2021/08/31 00:35:58;;;;;;;12.38;10.80;;;14.30;99.90;;;;;;5053661;28;20467;-76
2021/08/31 00:38:24;;;;;;;13.32;10.68;;;14.30;99.90;;;;;;5054656;28;20033;-76
2021/08/31 00:40:50;;;;;;;11.77;9.88;;;14.30;99.90;;;;;;5054294;28;20107;-76
2021/08/31 00:43:17;;;;;;;14.02;11.40;;;14.30;99.90;;;;;;5053026;28;20053;-75
2021/08/31 00:45:43;;;;;;;13.55;10.63;;;14.30;99.90;;;;;;5052556;28;20118;-76
2021/08/31 00:48:09;;;;;;;14.05;11.13;;;14.30;99.90;;;;;;5053385;28;20033;-76
2021/08/31 00:50:34;;;;;;;13.93;11.95;;;14.30;99.90;;;;;;5054590;28;20037;-76
2021/08/31 00:53:00;;;;;;;16.00;11.80;;;14.30;99.90;;;;;;5053379;28;20032;-76
2021/08/31 00:55:26;;;;;;;15.73;12.20;;;14.30;99.90;;;;;;5053758;28;20100;-76
2021/08/31 00:57:52;;;;;;;14.93;11.65;;;14.30;99.90;;;;;;5054227;28;20398;-76
2021/08/31 01:00:17;;;;;;;16.30;14.07;;;14.30;99.90;;;;;;5053360;28;20029;-76
2021/08/31 01:02:43;;;;;;;16.15;12.55;;;14.30;99.90;;;;;;5054423;28;20079;-76
2021/08/31 01:05:09;;;;;;;15.15;12.32;;;14.30;99.90;;;;;;5053593;28;20497;-76
2021/08/31 01:07:35;;;;;;;14.13;12.20;;;14.30;99.90;;;;;;5054323;28;20024;-76
2021/08/31 01:10:02;;;;;;;20.38;15.52;;;14.30;99.90;;;;;;5053404;28;20479;-76
2021/08/31 01:12:28;;;;;;;27.45;17.00;;;14.30;99.90;;;;;;5052873;28;20029;-76
2021/08/31 01:14:55;;;;;;;21.75;16.67;;;14.30;99.90;;;;;;5053705;28;20104;-76
2021/08/31 01:17:25;;;;;;;21.75;16.50;;;14.40;99.90;;;;;;5053934;28;20124;-76
2021/08/31 01:19:51;;;;;;;24.67;16.02;;;14.40;99.90;;;;;;5054033;28;20025;-76
2021/08/31 01:22:16;;;;;;;24.63;17.67;;;14.40;99.90;;;;;;5053323;28;20029;-76
2021/08/31 01:24:44;;;;;;;21.45;16.50;;;14.40;99.90;;;;;;5053530;28;20064;-76
2021/08/31 01:27:10;;;;;;;21.33;16.00;;;14.40;99.90;;;;;;5053214;28;20056;-76
2021/08/31 01:29:36;;;;;;;24.05;17.15;;;14.30;99.90;;;;;;5053255;28;20037;-75
2021/08/31 01:32:03;;;;;;;22.52;17.33;;;14.30;99.90;;;;;;5052370;28;20142;-75
2021/08/31 01:34:29;;;;;;;18.27;15.70;;;14.30;99.90;;;;;;5053742;28;20032;-76
2021/08/31 01:36:54;;;;;;;24.70;16.08;;;14.30;99.90;;;;;;5053750;28;20037;-76
2021/08/31 01:39:20;;;;;;;20.73;15.88;;;14.40;99.90;;;;;;5052785;28;20025;-76
2021/08/31 01:41:46;;;;;;;22.17;15.98;;;14.30;99.90;;;;;;5054071;28;20486;-76
2021/08/31 01:44:12;;;;;;;20.90;15.68;;;14.30;99.90;;;;;;5058466;28;20363;-76
2021/08/31 01:46:37;;;;;;;20.33;16.77;;;14.30;99.90;;;;;;5064270;28;20029;-77
2021/08/31 01:49:03;;;;;;;23.92;17.77;;;14.40;99.90;;;;;;5052971;28;20056;-76
2021/08/31 01:51:29;;;;;;;21.17;16.23;;;14.40;99.90;;;;;;5053272;28;20033;-76
2021/08/31 01:53:55;;;;;;;27.48;18.55;;;14.40;99.90;;;;;;5053509;28;20033;-76
2021/08/31 01:56:20;;;;;;;25.58;20.42;;;14.40;99.90;;;;;;5052692;28;20027;-76
2021/08/31 01:58:46;;;;;;;25.63;19.17;;;14.40;99.90;;;;;;5053333;28;20040;-76
2021/08/31 02:01:11;;;;;;;24.40;18.00;;;14.30;99.90;;;;;;5052245;28;20466;-76
2021/08/31 02:03:38;;;;;;;24.67;18.80;;;14.20;99.90;;;;;;5052955;28;20074;-76
2021/08/31 02:06:04;;;;;;;24.25;18.58;;;14.20;99.90;;;;;;5052373;28;20060;-75
2021/08/31 02:08:29;;;;;;;23.05;17.40;;;14.10;99.90;;;;;;5052957;28;20063;-76
2021/08/31 02:10:55;;;;;;;23.88;18.08;;;14.10;99.90;;;;;;5052498;28;20048;-76
2021/08/31 02:13:21;;;;;;;25.27;19.40;;;14.10;99.90;;;;;;5052267;28;20036;-76
2021/08/31 02:15:46;;;;;;;29.63;20.98;;;14.10;99.90;;;;;;5052694;28;20482;-76
2021/08/31 02:18:12;;;;;;;24.30;19.00;;;14.00;99.90;;;;;;5052027;28;20025;-76
2021/08/31 02:20:38;;;;;;;23.15;17.20;;;14.00;99.90;;;;;;5052347;28;20029;-76
2021/08/31 02:23:04;;;;;;;22.00;17.65;;;14.00;99.90;;;;;;5051994;28;20033;-76
2021/08/31 02:25:29;;;;;;;25.67;19.45;;;14.00;99.90;;;;;;5052783;28;20103;-77
2021/08/31 02:27:55;;;;;;;24.17;18.33;;;14.00;99.90;;;;;;5052507;28;20078;-76
2021/08/31 02:30:21;;;;;;;23.55;17.63;;;14.00;99.90;;;;;;5051674;28;20095;-76
2021/08/31 02:32:48;;;;;;;26.48;18.88;;;14.00;99.90;;;;;;5052736;28;20455;-76
2021/08/31 02:35:14;;;;;;;23.35;18.58;;;13.90;99.90;;;;;;5051490;28;20032;-76
2021/08/31 02:37:40;;;;;;;23.02;17.08;;;13.90;99.90;;;;;;5052228;28;20359;-76
2021/08/31 02:40:07;;;;;;;26.30;18.30;;;13.90;99.90;;;;;;5051468;28;20052;-76
2021/08/31 02:42:33;;;;;;;23.67;17.60;;;13.90;99.90;;;;;;5051341;28;20021;-76
2021/08/31 02:44:58;;;;;;;24.73;17.80;;;13.90;99.90;;;;;;5051344;28;20143;-76
2021/08/31 02:47:24;;;;;;;23.85;16.83;;;13.90;99.90;;;;;;5051803;28;20036;-76
2021/08/31 02:49:49;;;;;;;22.40;16.17;;;13.80;99.90;;;;;;5052483;28;20037;-76
2021/08/31 02:52:16;;;;;;;26.55;19.40;;;13.80;99.90;;;;;;5051944;28;20033;-75
2021/08/31 02:54:41;;;;;;;24.02;17.77;;;13.80;99.90;;;;;;5051950;28;20398;-75
2021/08/31 02:57:08;;;;;;;25.17;18.38;;;13.70;99.90;;;;;;5051285;28;20039;-75
2021/08/31 02:59:33;;;;;;;26.67;18.40;;;13.70;99.90;;;;;;5052047;28;20033;-75
2021/08/31 03:02:06;;;;;;;31.70;20.95;;;13.70;99.90;;;;;;5050452;28;20510;-75
2021/08/31 03:04:33;;;;;;;27.30;18.80;;;13.70;99.90;;;;;;5051816;28;20033;-75
2021/08/31 03:06:59;;;;;;;26.17;18.63;;;13.70;99.90;;;;;;5050475;28;20037;-75
2021/08/31 03:09:24;;;;;;;25.85;19.08;;;13.70;99.90;;;;;;5049798;28;20051;-75
2021/08/31 03:11:50;;;;;;;23.52;17.13;;;13.70;99.90;;;;;;5050294;28;20025;-75
2021/08/31 03:14:19;;;;;;;26.85;18.42;;;13.70;99.90;;;;;;5049343;28;20021;-76
2021/08/31 03:16:46;;;;;;;28.55;19.48;;;13.60;99.90;;;;;;5050257;28;20021;-76
2021/08/31 03:19:14;;;;;;;26.27;20.25;;;13.70;99.90;;;;;;5049783;28;20107;-75
2021/08/31 03:21:39;;;;;;;29.38;19.50;;;13.70;99.90;;;;;;5050226;28;20359;-77
2021/08/31 03:24:05;;;;;;;23.63;17.83;;;13.70;99.90;;;;;;5048046;28;20028;-77
2021/08/31 03:26:30;;;;;;;25.58;18.52;;;13.70;99.90;;;;;;5050259;28;20078;-76
2021/08/31 03:28:56;;;;;;;27.77;19.00;;;13.70;99.90;;;;;;5050368;28;20036;-76
2021/08/31 03:31:22;;;;;;;27.88;20.02;;;13.80;99.90;;;;;;5050272;28;20596;-76
2021/08/31 03:33:47;;;;;;;27.08;18.35;;;13.90;99.90;;;;;;5051358;28;20029;-77
2021/08/31 03:36:13;;;;;;;24.08;18.73;;;13.90;99.90;;;;;;5050365;28;20060;-77
2021/08/31 03:38:39;;;;;;;27.55;19.83;;;13.90;99.90;;;;;;5051488;28;20455;-78
2021/08/31 03:41:04;;;;;;;22.83;17.50;;;13.90;99.90;;;;;;5050502;28;20107;-77
2021/08/31 03:43:30;;;;;;;23.30;17.45;;;13.90;99.90;;;;;;5050524;28;20025;-77
2021/08/31 03:45:55;;;;;;;23.23;17.63;;;13.90;99.90;;;;;;5051322;28;20033;-77
2021/08/31 03:48:21;;;;;;;25.33;18.20;;;13.90;99.90;;;;;;5050488;28;20044;-77
2021/08/31 03:50:47;;;;;;;25.23;18.85;;;13.80;99.90;;;;;;5051594;28;20462;-77
2021/08/31 03:53:12;;;;;;;24.50;17.98;;;13.80;99.90;;;;;;5050840;28;20029;-76
2021/08/31 03:55:38;;;;;;;24.63;17.80;;;13.80;99.90;;;;;;5051244;28;20104;-75
2021/08/31 03:58:06;;;;;;;26.90;19.35;;;13.80;99.90;;;;;;5054242;28;20079;-76
2021/08/31 04:00:34;;;;;;;25.65;18.95;;;13.80;99.90;;;;;;5055393;28;20021;-75
2021/08/31 04:03:00;;;;;;;27.40;19.40;;;13.80;99.90;;;;;;5055021;28;20075;-75
2021/08/31 04:05:26;;;;;;;25.23;17.63;;;13.80;99.90;;;;;;5054852;28;20458;-75
2021/08/31 04:07:51;;;;;;;27.17;19.65;;;13.80;99.90;;;;;;5055089;28;20032;-76
2021/08/31 04:10:17;;;;;;;26.13;18.15;;;13.80;99.90;;;;;;5053857;28;20041;-76
2021/08/31 04:12:43;;;;;;;25.33;18.38;;;13.90;99.90;;;;;;5055216;28;20032;-76
2021/08/31 04:15:09;;;;;;;28.85;19.15;;;13.90;99.90;;;;;;5054421;28;20033;-76
2021/08/31 04:17:35;;;;;;;26.85;17.67;;;13.90;99.90;;;;;;5055076;28;20032;-76
2021/08/31 04:20:00;;;;;;;34.40;22.08;;;13.80;99.90;;;;;;5054823;28;20032;-80
2021/08/31 04:22:26;;;;;;;31.30;22.25;;;13.80;99.90;;;;;;5054165;28;20074;-76
2021/08/31 04:24:52;;;;;;;28.60;20.77;;;13.80;99.90;;;;;;5054904;28;20040;-77
2021/08/31 04:27:17;;;;;;;27.73;21.08;;;13.90;99.90;;;;;;5054132;28;20040;-77
2021/08/31 04:29:43;;;;;;;34.22;23.08;;;13.90;99.90;;;;;;5054892;28;20072;-77
2021/08/31 04:32:08;;;;;;;29.77;20.98;;;13.90;99.90;;;;;;5053856;28;20040;-76
2021/08/31 04:34:34;;;;;;;30.45;20.98;;;13.90;99.90;;;;;;5054441;28;20063;-76
2021/08/31 04:37:00;;;;;;;32.03;21.23;;;13.90;99.90;;;;;;5054438;28;20037;-76
2021/08/31 04:39:25;;;;;;;33.83;21.80;;;13.90;99.90;;;;;;5053880;28;20037;-76
2021/08/31 04:41:51;;;;;;;29.70;20.02;;;14.00;99.90;;;;;;5054735;28;20041;-75
2021/08/31 04:44:17;;;;;;;28.73;20.35;;;14.00;99.90;;;;;;5053411;28;20025;-76
2021/08/31 04:46:42;;;;;;;31.58;20.83;;;14.00;99.90;;;;;;5054541;28;20381;-75
2021/08/31 04:49:08;;;;;;;24.33;18.63;;;14.00;99.90;;;;;;5053399;28;20032;-75
2021/08/31 04:51:33;;;;;;;25.90;18.25;;;14.00;99.90;;;;;;5054421;28;20448;-75
2021/08/31 04:53:59;;;;;;;27.20;17.58;;;14.00;99.90;;;;;;5054356;28;20038;-75
2021/08/31 04:56:25;;;;;;;22.70;16.15;;;14.00;99.90;;;;;;5053228;28;20096;-76
2021/08/31 04:58:50;;;;;;;23.17;17.60;;;14.00;99.90;;;;;;5052859;28;20025;-75
2021/08/31 05:01:16;;;;;;;31.58;19.30;;;14.00;99.90;;;;;;5053284;28;20017;-75
2021/08/31 05:03:42;;;;;;;26.83;18.58;;;14.00;99.90;;;;;;5055188;28;20029;-75
2021/08/31 05:06:09;;;;;;;29.80;20.02;;;14.10;99.90;;;;;;5054018;28;20528;-74
2021/08/31 05:08:35;;;;;;;26.10;18.77;;;14.10;99.90;;;;;;5054782;28;20029;-75
2021/08/31 05:11:01;;;;;;;25.60;19.05;;;14.10;99.90;;;;;;5053736;28;20037;-75
2021/08/31 05:13:27;;;;;;;27.83;20.70;;;14.10;99.90;;;;;;5053120;28;20078;-75
2021/08/31 05:15:53;;;;;;;30.08;21.63;;;14.10;99.90;;;;;;5054460;28;20036;-75
2021/08/31 05:18:19;;;;;;;27.40;20.40;;;14.10;99.90;;;;;;5052017;28;20025;-76
2021/08/31 05:20:44;;;;;;;28.15;20.25;;;14.10;99.90;;;;;;5054197;28;20477;-76
2021/08/31 05:23:10;;;;;;;26.42;19.30;;;14.10;99.90;;;;;;5053102;28;20021;-77
2021/08/31 05:25:36;;;;;;;32.42;20.27;;;14.10;99.90;;;;;;5053739;28;20029;-75
2021/08/31 05:28:01;;;;;;;26.65;20.23;;;14.10;99.90;;;;;;5053475;28;20027;-74
2021/08/31 05:30:27;;;;;;;22.02;16.30;;;14.10;99.90;;;;;;5052707;28;20029;-75
2021/08/31 05:32:52;;;;;;;30.25;21.45;;;14.10;99.90;;;;;;5054077;28;20054;-75
2021/08/31 05:35:18;;;;;;;27.27;19.25;;;14.10;99.90;;;;;;5052935;28;20478;-75
2021/08/31 05:37:44;;;;;;;25.35;20.48;;;14.10;99.90;;;;;;5053557;28;20104;-74
2021/08/31 05:40:11;;;;;;;24.77;18.35;;;14.20;99.90;;;;;;5052301;28;20057;-75
2021/08/31 05:42:36;;;;;;;26.58;18.77;;;14.20;99.90;;;;;;5053865;28;20029;-75
2021/08/31 05:45:02;;;;;;;24.17;18.75;;;14.20;99.90;;;;;;5052357;28;20535;-75
2021/08/31 05:47:28;;;;;;;30.65;19.15;;;14.20;99.90;;;;;;5052522;28;20809;-75
2021/08/31 05:49:53;;;;;;;22.10;17.40;;;14.20;99.90;;;;;;5053317;28;20104;-75
2021/08/31 05:52:19;;;;;;;28.23;18.10;;;14.30;99.90;;;;;;5052660;28;20036;-75
2021/08/31 05:54:45;;;;;;;23.95;18.08;;;14.30;99.90;;;;;;5047713;28;20344;-75
2021/08/31 05:57:11;;;;;;;23.90;17.52;;;14.40;99.90;;;;;;5051975;28;20466;-75
2021/08/31 05:59:39;;;;;;;22.80;17.67;;;14.40;99.90;;;;;;5052463;28;20227;-75
2021/08/31 06:02:09;;;;;;;21.92;16.92;;;14.40;99.90;;;;;;5052775;28;20025;-75
2021/08/31 06:04:36;;;;;;;18.67;15.53;;;14.40;99.90;;;;;;5052726;28;20029;-76
2021/08/31 06:07:07;;;;;;;19.92;15.20;;;14.60;99.90;;;;;;5053062;28;20035;-76
2021/08/31 06:09:37;;;;;;;21.50;15.70;;;14.60;99.90;;;;;;5052539;28;20045;-75
2021/08/31 06:12:07;;;;;;;20.25;15.05;;;14.70;99.90;;;;;;5052470;28;20036;-75
2021/08/31 06:14:33;;;;;;;20.25;16.35;;;14.80;99.90;;;;;;5052422;28;20025;-75
2021/08/31 06:16:59;;;;;;;20.50;14.63;;;14.70;99.90;;;;;;5052380;28;20115;-75
2021/08/31 06:19:25;;;;;;;20.13;14.70;;;14.70;99.90;;;;;;5050104;28;20029;-69
2021/08/31 06:21:50;;;;;;;23.23;14.98;;;14.70;99.90;;;;;;5052477;28;20036;-69
2021/08/31 06:24:16;;;;;;;17.33;13.35;;;14.80;99.90;;;;;;5050531;28;20032;-82
2021/08/31 06:26:42;;;;;;;20.02;13.75;;;14.80;99.90;;;;;;5052494;28;20473;-80
2021/08/31 06:29:07;;;;;;;18.45;14.13;;;14.80;99.90;;;;;;5051118;28;20108;-72
2021/08/31 06:31:33;;;;;;;19.05;14.63;;;14.90;99.90;;;;;;5052311;28;20033;-72
2021/08/31 06:33:59;;;;;;;20.67;13.38;;;14.90;99.90;;;;;;5051938;28;20446;-72
2021/08/31 06:36:24;;;;;;;16.58;13.63;;;15.00;99.90;;;;;;5051202;28;20035;-71
2021/08/31 06:38:50;;;;;;;15.35;12.68;;;15.10;99.90;;;;;;5052076;28;20104;-72
2021/08/31 06:41:16;;;;;;;16.65;13.00;;;15.20;99.90;;;;;;5051363;28;20083;-71
2021/08/31 06:43:44;;;;;;;18.35;13.18;;;15.10;99.90;;;;;;5050640;28;20082;-71
2021/08/31 06:46:10;;;;;;;15.65;12.15;;;15.20;99.90;;;;;;5051477;28;20523;-71
2021/08/31 06:48:35;;;;;;;16.48;13.15;;;15.20;99.90;;;;;;5044690;28;20025;-71
2021/08/31 06:51:01;;;;;;;14.80;12.45;;;15.20;99.90;;;;;;5051116;28;20090;-71
2021/08/31 06:53:27;;;;;;;21.67;12.70;;;15.30;99.90;;;;;;5050877;28;20064;-71
2021/08/31 06:55:53;;;;;;;16.90;12.32;;;15.30;99.90;;;;;;5052143;28;20032;-70
2021/08/31 06:58:18;;;;;;;17.58;12.70;;;15.50;99.90;;;;;;5051301;28;20107;-71
2021/08/31 07:00:44;;;;;;;14.95;12.15;;;15.50;99.90;;;;;;5051797;28;20086;-71
2021/08/31 07:03:09;;;;;;;13.90;11.30;;;15.50;99.90;;;;;;5050825;28;20032;-71
2021/08/31 07:05:35;;;;;;;14.88;11.77;;;15.40;99.90;;;;;;5051175;28;20500;-70
2021/08/31 07:08:01;;;;;;;13.30;11.35;;;15.40;99.90;;;;;;5050743;28;20455;-70
2021/08/31 07:10:27;;;;;;;14.25;11.38;;;15.40;99.90;;;;;;5047277;28;20581;-71
2021/08/31 07:12:53;;;;;;;16.52;11.40;;;15.30;99.90;;;;;;5051822;28;20482;-70
2021/08/31 07:15:18;;;;;;;13.32;10.98;;;15.20;99.90;;;;;;5050541;28;20031;-70
2021/08/31 07:17:44;;;;;;;15.35;11.23;;;15.20;99.90;;;;;;5050752;28;20031;-70
2021/08/31 07:20:11;;;;;;;13.73;11.02;;;15.30;99.90;;;;;;5046538;28;20034;-71
2021/08/31 07:22:36;;;;;;;19.50;11.60;;;15.30;99.90;;;;;;5050247;28;20029;-71
2021/08/31 07:25:02;;;;;;;14.43;10.70;;;15.30;99.90;;;;;;5051635;28;20028;-71
2021/08/31 07:27:28;;;;;;;12.00;10.70;;;15.30;99.90;;;;;;5043534;28;20624;-71
2021/08/31 07:29:54;;;;;;;14.35;11.27;;;15.30;99.90;;;;;;5050771;28;20021;-71
2021/08/31 07:32:19;;;;;;;14.68;10.50;;;15.40;99.90;;;;;;5054861;28;20069;-71
2021/08/31 07:34:45;;;;;;;16.38;11.23;;;15.50;99.90;;;;;;5055067;28;20462;-71
2021/08/31 07:37:11;;;;;;;12.63;10.18;;;15.70;99.90;;;;;;5055111;28;20370;-70
2021/08/31 07:39:36;;;;;;;14.98;10.43;;;15.80;99.90;;;;;;5055309;28;20025;-70
2021/08/31 07:42:02;;;;;;;12.98;8.55;;;16.00;99.90;;;;;;5055153;28;20052;-70
2021/08/31 07:44:28;;;;;;;13.10;9.63;;;16.00;99.90;;;;;;5050038;28;20056;-71
2021/08/31 07:46:54;;;;;;;12.27;8.93;;;16.00;99.90;;;;;;5055623;28;20370;-71
2021/08/31 07:49:20;;;;;;;13.07;8.88;;;16.10;99.90;;;;;;5053299;28;20028;-70
2021/08/31 07:51:46;;;;;;;13.23;7.95;;;16.20;99.90;;;;;;5055609;28;20043;-70
2021/08/31 07:54:12;;;;;;;14.82;8.52;;;16.20;99.90;;;;;;5053477;28;20033;-70
2021/08/31 07:56:39;;;;;;;12.25;9.15;;;16.20;99.90;;;;;;5055660;28;20033;-70
2021/08/31 07:59:04;;;;;;;13.43;8.45;;;16.30;99.90;;;;;;5055745;28;20086;-70
2021/08/31 08:01:30;;;;;;;11.07;8.52;;;16.40;99.90;;;;;;5051334;28;20470;-70
2021/08/31 08:03:57;;;;;;;8.73;7.50;;;16.40;99.90;;;;;;5054828;28;20032;-70
2021/08/31 08:06:23;;;;;;;10.40;8.10;;;16.40;99.90;;;;;;5054952;28;20028;-71
2021/08/31 08:08:49;;;;;;;9.48;8.18;;;16.40;99.90;;;;;;5055469;28;20037;-71
2021/08/31 08:11:14;;;;;;;9.25;8.10;;;16.60;99.90;;;;;;5052614;28;20041;-71
2021/08/31 08:13:40;;;;;;;10.95;7.55;;;16.70;99.90;;;;;;5054981;28;20025;-71
2021/08/31 08:16:06;;;;;;;8.82;7.55;;;16.70;99.90;;;;;;5054970;28;20028;-71
2021/08/31 08:18:31;;;;;;;10.65;7.70;;;16.80;99.90;;;;;;5052787;28;20025;-71
2021/08/31 08:20:57;;;;;;;10.02;7.85;;;16.80;99.90;;;;;;5051688;28;20040;-71
2021/08/31 08:23:23;;;;;;;11.07;7.55;;;16.90;99.90;;;;;;5048028;28;20100;-71
2021/08/31 08:25:50;;;;;;;12.63;7.70;;;16.90;99.90;;;;;;5053461;28;20032;-69
2021/08/31 08:28:15;;;;;;;9.07;7.35;;;16.90;99.90;;;;;;5048118;28;20029;-69
2021/08/31 08:30:41;;;;;;;10.18;7.45;;;16.80;99.90;;;;;;5050000;28;20067;-70
2021/08/31 08:33:07;;;;;;;9.77;7.45;;;16.90;99.90;;;;;;5055320;28;20028;-69
2021/08/31 08:35:32;;;;;;;10.68;7.70;;;16.80;99.90;;;;;;5052419;28;20540;-69
2021/08/31 08:37:59;;;;;;;9.73;7.68;;;16.70;99.90;;;;;;5052227;28;20436;-70
2021/08/31 08:40:25;;;;;;;9.88;8.02;;;16.60;99.90;;;;;;5049315;28;20072;-69
2021/08/31 08:42:52;;;;;;;8.85;7.18;;;16.70;99.90;;;;;;5047652;28;20100;-70
2021/08/31 08:45:18;;;;;;;10.65;8.05;;;16.80;99.90;;;;;;5045494;28;20048;-70
2021/08/31 08:47:44;;;;;;;12.43;8.52;;;16.90;99.90;;;;;;5048600;28;20021;-70
2021/08/31 08:50:11;;;;;;;9.07;7.28;;;17.10;99.90;;;;;;5051281;28;20155;-69
2021/08/31 08:52:37;;;;;;;9.27;7.53;;;17.20;99.90;;;;;;5050953;28;20036;-70
2021/08/31 08:55:08;;;;;;;9.45;6.75;;;17.40;99.90;;;;;;5045891;28;20021;-69
2021/08/31 08:57:34;;;;;;;7.38;6.47;;;17.40;99.90;;;;;;5039387;28;20067;-70
2021/08/31 09:00:00;;;;;;;8.45;6.45;;;17.50;99.90;;;;;;5044906;28;20063;-70
2021/08/31 09:02:38;;;;;;;7.13;6.10;;;17.50;99.90;;;;;;5047502;28;20040;-70
2021/08/31 09:05:08;;;;;;;12.02;7.35;;;17.60;99.90;;;;;;5046714;28;20021;-70
2021/08/31 09:07:38;;;;;;;7.55;6.47;;;17.60;99.90;;;;;;5048981;28;20021;-70
2021/08/31 09:10:31;;;;;;;7.75;6.95;;;17.60;99.90;;;;;;5053420;28;20053;-70
2021/08/31 09:12:56;;;;;;;9.98;7.35;;;17.70;99.90;;;;;;5052770;28;20052;-70
2021/08/31 09:15:42;;;;;;;7.68;6.55;;;17.70;99.90;;;;;;5052862;28;20025;-70
2021/08/31 09:18:15;;;;;;;8.50;6.57;;;17.80;99.90;;;;;;5052657;28;20033;-70
2021/08/31 09:21:04;;;;;;;7.95;6.68;;;17.90;99.90;;;;;;5051529;28;20039;-72
2021/08/31 09:23:37;;;;;;;8.18;6.28;;;17.90;99.90;;;;;;5052610;28;20072;-71
2021/08/31 09:26:09;;;;;;;11.10;6.72;;;18.10;99.90;;;;;;5053688;28;20021;-71
2021/08/31 09:28:44;;;;;;;8.57;6.38;;;18.20;99.90;;;;;;5051898;28;20025;-71
2021/08/31 09:31:13;;;;;;;9.23;6.18;;;18.40;99.90;;;;;;5052345;28;20028;-71
2021/08/31 09:33:51;;;;;;;8.43;5.88;;;18.40;99.90;;;;;;5051299;28;20217;-71
2021/08/31 09:36:23;;;;;;;7.13;6.03;;;18.60;99.90;;;;;;5052394;28;20021;-71
2021/08/31 09:39:00;;;;;;;10.88;6.28;;;18.70;99.90;;;;;;5052086;28;20036;-70
2021/08/31 09:41:38;;;;;;;7.38;5.78;;;18.60;99.90;;;;;;5051631;28;20049;-71
2021/08/31 09:44:07;;;;;;;9.65;6.57;;;18.60;99.90;;;;;;5051142;28;20383;-71
2021/08/31 09:46:45;;;;;;;7.53;5.70;;;18.60;99.90;;;;;;5051599;28;20029;-71
2021/08/31 09:49:20;;;;;;;9.05;5.90;;;18.60;99.90;;;;;;5044623;28;20037;-71
2021/08/31 09:52:04;;;;;;;9.07;6.13;;;18.60;99.90;;;;;;5052099;28;20060;-72
2021/08/31 09:54:30;;;;;;;12.43;6.10;;;18.70;99.90;;;;;;5050840;28;20044;-71
2021/08/31 09:56:56;;;;;;;6.47;5.80;;;18.80;99.90;;;;;;5051505;28;20052;-71
2021/08/31 09:59:23;;;;;;;7.38;5.82;;;18.90;99.90;;;;;;5051453;28;20060;-71
2021/08/31 10:01:52;;;;;;;7.60;5.85;;;19.00;99.90;;;;;;5050796;28;20041;-71
2021/08/31 10:04:19;;;;;;;8.40;5.88;;;18.80;99.90;;;;;;5051847;28;20378;-71
2021/08/31 10:06:46;;;;;;;7.30;5.82;;;18.40;99.90;;;;;;5047759;28;20113;-72
2021/08/31 10:09:12;;;;;;;6.78;5.35;;;18.40;99.90;;;;;;5051304;28;20078;-71
2021/08/31 10:11:37;;;;;;;7.65;5.43;;;18.40;99.90;;;;;;5050975;28;20029;-71
2021/08/31 10:14:04;;;;;;;8.23;6.45;;;18.50;99.90;;;;;;5051698;28;20040;-72
2021/08/31 10:16:31;;;;;;;6.85;5.68;;;18.70;99.90;;;;;;5050468;28;20082;-71
2021/08/31 10:18:57;;;;;;;7.88;5.80;;;18.70;99.90;;;;;;5051062;28;20163;-71
2021/08/31 10:21:24;;;;;;;7.93;6.00;;;18.80;99.90;;;;;;5051166;28;20108;-71
2021/08/31 10:23:50;;;;;;;8.68;5.50;;;18.90;99.90;;;;;;5051287;28;20025;-71
2021/08/31 10:26:26;;;;;;;6.85;5.65;;;18.90;99.90;;;;;;5051331;28;20052;-71
2021/08/31 10:29:21;;;;;;;7.60;5.80;;;19.00;99.90;;;;;;5051005;28;20029;-71
2021/08/31 10:31:50;;;;;;;6.00;5.32;;;19.00;99.90;;;;;;5044486;28;20025;-71
2021/08/31 10:34:31;;;;;;;7.43;5.45;;;19.10;99.90;;;;;;5051115;28;20025;-71
2021/08/31 10:37:05;;;;;;;7.57;5.88;;;19.10;99.90;;;;;;5049947;28;20032;-71
2021/08/31 10:39:48;;;;;;;7.88;5.22;;;19.20;99.90;;;;;;5047707;28;20033;-71
2021/08/31 10:42:29;;;;;;;6.82;4.95;;;19.30;99.90;;;;;;5049850;28;20041;-71
2021/08/31 10:45:03;;;;;;;6.63;5.07;;;19.30;99.90;;;;;;5051523;28;20064;-71
2021/08/31 10:47:39;;;;;;;8.13;4.88;;;19.20;99.90;;;;;;5050767;28;20040;-71
2021/08/31 10:50:05;;;;;;;7.43;5.10;;;19.20;99.90;;;;;;5051056;28;20389;-71
2021/08/31 10:52:41;;;;;;;5.53;4.93;;;19.10;99.90;;;;;;5050523;28;20130;-71
2021/08/31 10:55:27;;;;;;;6.72;5.07;;;19.20;99.90;;;;;;5050098;28;20422;-71
2021/08/31 10:57:57;;;;;;;6.00;4.68;;;19.20;99.90;;;;;;5039467;28;20135;-71
2021/08/31 11:00:27;;;;;;;8.20;5.00;;;19.20;99.90;;;;;;5051494;28;20445;-71
2021/08/31 11:02:58;;;;;;;7.10;5.00;;;19.20;99.90;;;;;;5050796;28;20017;-71
2021/08/31 11:05:30;;;;;;;4.68;4.03;;;19.30;99.90;;;;;;5050951;28;20040;-71
2021/08/31 11:08:01;;;;;;;6.53;4.90;;;19.50;99.90;;;;;;5044782;28;20029;-71
2021/08/31 11:10:32;;;;;;;8.60;5.25;;;19.70;99.90;;;;;;5050418;28;20041;-72
2021/08/31 11:13:16;;;;;;;10.70;5.57;;;19.80;99.80;;;;;;5051041;28;20033;-71
2021/08/31 11:15:42;;;;;;;6.03;5.10;;;19.90;99.00;;;;;;5050373;28;20017;-71
2021/08/31 11:18:10;;;;;;;7.50;5.00;;;19.70;99.70;;;;;;5051260;28;20024;-71
2021/08/31 11:20:38;;;;;;;9.27;4.80;;;19.70;98.10;;;;;;5050333;28;20052;-71
2021/08/31 11:23:03;;;;;;;7.53;6.20;;;19.60;99.50;;;;;;5050602;28;20033;-71
2021/08/31 11:25:31;;;;;;;9.02;5.35;;;19.60;99.40;;;;;;5050492;28;20033;-71
2021/08/31 11:27:59;;;;;;;6.47;5.50;;;19.60;99.60;;;;;;5050573;28;20398;-71
2021/08/31 11:30:26;;;;;;;7.72;6.22;;;19.60;99.90;;;;;;5050568;28;20025;-71
2021/08/31 11:33:11;;;;;;;6.80;5.93;;;19.60;99.90;;;;;;5050422;28;20111;-71
2021/08/31 11:35:36;;;;;;;7.50;5.85;;;19.70;99.90;;;;;;5048967;28;20532;-71
2021/08/31 11:38:02;;;;;;;8.10;6.22;;;19.80;99.90;;;;;;5051071;28;20025;-71
2021/08/31 11:40:28;;;;;;;7.10;6.35;;;19.80;99.90;;;;;;5050350;28;20447;-71
2021/08/31 11:42:56;;;;;;;8.95;5.18;;;19.80;99.40;;;;;;5050395;28;20021;-71
2021/08/31 11:45:36;;;;;;;7.80;6.07;;;19.80;99.20;;;;;;5050863;28;20459;-71
2021/08/31 11:48:02;;;;;;;;;;;19.90;98.90;;;;;;5043775;28;20033;-71
2021/08/31 11:50:27;;;;;;;8.15;6.40;;;19.90;97.70;;;;;;5050274;28;19920;-71
2021/08/31 11:52:53;;;;;;;9.40;5.47;;;19.80;98.20;;;;;;5049595;28;20052;-71
2021/08/31 11:55:26;;;;;;;8.48;5.20;;;19.80;99.50;;;;;;5049918;28;20036;-72
2021/08/31 11:58:03;;;;;;;5.72;5.13;;;19.90;96.70;;;;;;5049354;28;20470;-72
2021/08/31 12:00:43;;;;;;;12.15;4.70;;;20.00;96.70;;;;;;5050160;28;20302;-71
2021/08/31 12:03:38;;;;;;;7.03;4.80;;;20.00;97.20;;;;;;5042213;28;20132;-71
2021/08/31 12:06:09;;;;;;;10.40;5.65;;;20.10;96.40;;;;;;5040713;28;20045;-71
2021/08/31 12:08:38;;;;;;;6.10;4.88;;;20.20;96.50;;;;;;5046814;28;20068;-71
2021/08/31 12:11:06;;;;;;;6.20;5.05;;;20.20;97.20;;;;;;5050222;28;20039;-71
2021/08/31 12:13:33;;;;;;;6.90;5.35;;;20.30;96.30;;;;;;5049651;28;20033;-71
2021/08/31 12:16:02;;;;;;;4.60;4.20;;;20.40;96.10;;;;;;5049814;28;20086;-71
2021/08/31 12:18:29;;;;;;;6.57;5.45;;;20.40;96.50;;;;;;5054356;28;20060;-70
2021/08/31 12:21:13;;;;;;;6.22;4.82;;;20.50;95.60;;;;;;5045913;28;20063;-71
2021/08/31 12:23:39;;;;;;;5.95;5.18;;;20.60;95.60;;;;;;5053148;28;20040;-71
2021/08/31 12:26:04;;;;;;;6.07;4.72;;;20.70;95.00;;;;;;5053806;28;20108;-70
2021/08/31 12:28:30;;;;;;;5.60;4.97;;;20.80;94.20;;;;;;5052843;28;20036;-70
2021/08/31 12:30:56;;;;;;;6.30;5.13;;;20.80;93.40;;;;;;5052798;28;20411;-70
2021/08/31 12:33:27;;;;;;;7.70;5.03;;;20.70;93.00;;;;;;5053780;28;20462;-71
2021/08/31 12:36:03;;;;;;;5.50;4.28;;;20.70;94.40;;;;;;5052752;28;20028;-70